sensor_id;sensor_type;location;lat;lon;timestamp;P1;durP1;ratioP1;P2;durP2;ratioP2
10471;SDS011;5283;48.876;8.962;2023-07-31T00:01:21;3.50;;;2.40;;
10471;SDS011;5283;48.876;8.962;2023-07-31T00:03:49;2.67;;;2.20;;
10471;SDS011;5283;48.876;8.962;2023-07-31T00:06:17;4.83;;;2.40;;
10471;SDS011;5283;48.876;8.962;2023-07-31T00:08:44;6.07;;;2.57;;
10471;SDS011;5283;48.876;8.962;2023-07-31T00:11:11;4.73;;;2.50;;
10471;SDS011;5283;48.876;8.962;2023-07-31T00:13:38;5.33;;;2.60;;
10471;SDS011;5283;48.876;8.962;2023-07-31T00:16:04;5.97;;;2.60;;
10471;SDS011;5283;48.876;8.962;2023-07-31T00:18:31;9.50;;;2.70;;
10471;SDS011;5283;48.876;8.962;2023-07-31T00:20:58;7.57;;;2.53;;
10471;SDS011;5283;48.876;8.962;2023-07-31T00:23:25;6.77;;;2.47;;
10471;SDS011;5283;48.876;8.962;2023-07-31T00:25:52;6.63;;;2.73;;
10471;SDS011;5283;48.876;8.962;2023-07-31T00:28:19;4.87;;;2.70;;
10471;SDS011;5283;48.876;8.962;2023-07-31T00:30:45;2.73;;;2.40;;
10471;SDS011;5283;48.876;8.962;2023-07-31T00:33:12;5.10;;;2.67;;
10471;SDS011;5283;48.876;8.962;2023-07-31T00:35:39;4.40;;;2.53;;
10471;SDS011;5283;48.876;8.962;2023-07-31T00:38:06;5.07;;;2.40;;
10471;SDS011;5283;48.876;8.962;2023-07-31T00:40:37;4.63;;;2.80;;
10471;SDS011;5283;48.876;8.962;2023-07-31T00:46:07;4.83;;;2.50;;
10471;SDS011;5283;48.876;8.962;2023-07-31T00:48:34;5.03;;;2.93;;
10471;SDS011;5283;48.876;8.962;2023-07-31T00:51:03;6.13;;;2.90;;
10471;SDS011;5283;48.876;8.962;2023-07-31T00:53:32;8.43;;;2.97;;
10471;SDS011;5283;48.876;8.962;2023-07-31T00:56:00;9.57;;;3.10;;
10471;SDS011;5283;48.876;8.962;2023-07-31T00:58:27;5.70;;;3.30;;
10471;SDS011;5283;48.876;8.962;2023-07-31T01:00:54;5.47;;;2.83;;
10471;SDS011;5283;48.876;8.962;2023-07-31T01:03:22;3.87;;;3.20;;
10471;SDS011;5283;48.876;8.962;2023-07-31T01:08:41;3.97;;;3.00;;
10471;SDS011;5283;48.876;8.962;2023-07-31T01:11:31;5.37;;;3.10;;
10471;SDS011;5283;48.876;8.962;2023-07-31T01:14:03;4.83;;;3.20;;
10471;SDS011;5283;48.876;8.962;2023-07-31T01:16:30;3.83;;;3.27;;
10471;SDS011;5283;48.876;8.962;2023-07-31T01:18:57;7.20;;;3.80;;
10471;SDS011;5283;48.876;8.962;2023-07-31T01:26:59;6.77;;;3.70;;
10471;SDS011;5283;48.876;8.962;2023-07-31T01:29:39;6.20;;;3.20;;
10471;SDS011;5283;48.876;8.962;2023-07-31T01:32:08;7.77;;;3.50;;
10471;SDS011;5283;48.876;8.962;2023-07-31T01:34:36;9.17;;;3.53;;
10471;SDS011;5283;48.876;8.962;2023-07-31T01:37:03;5.47;;;2.93;;
10471;SDS011;5283;48.876;8.962;2023-07-31T01:39:30;7.00;;;3.30;;
10471;SDS011;5283;48.876;8.962;2023-07-31T01:41:57;6.00;;;3.13;;
10471;SDS011;5283;48.876;8.962;2023-07-31T01:44:24;3.70;;;3.00;;
10471;SDS011;5283;48.876;8.962;2023-07-31T01:46:51;5.57;;;3.10;;
10471;SDS011;5283;48.876;8.962;2023-07-31T01:49:17;5.03;;;3.13;;
10471;SDS011;5283;48.876;8.962;2023-07-31T01:51:44;3.47;;;3.00;;
10471;SDS011;5283;48.876;8.962;2023-07-31T01:54:11;6.80;;;3.43;;
10471;SDS011;5283;48.876;8.962;2023-07-31T01:56:39;4.20;;;3.07;;
10471;SDS011;5283;48.876;8.962;2023-07-31T01:59:06;3.80;;;2.60;;
10471;SDS011;5283;48.876;8.962;2023-07-31T02:01:33;5.27;;;2.83;;
10471;SDS011;5283;48.876;8.962;2023-07-31T02:04:01;4.87;;;2.90;;
10471;SDS011;5283;48.876;8.962;2023-07-31T02:09:31;3.70;;;2.70;;
10471;SDS011;5283;48.876;8.962;2023-07-31T02:11:58;3.50;;;2.70;;
10471;SDS011;5283;48.876;8.962;2023-07-31T02:14:24;5.40;;;2.83;;
10471;SDS011;5283;48.876;8.962;2023-07-31T02:16:51;4.47;;;2.60;;
10471;SDS011;5283;48.876;8.962;2023-07-31T02:19:18;4.30;;;3.00;;
10471;SDS011;5283;48.876;8.962;2023-07-31T02:21:45;4.40;;;3.13;;
10471;SDS011;5283;48.876;8.962;2023-07-31T02:24:11;5.30;;;2.90;;
10471;SDS011;5283;48.876;8.962;2023-07-31T02:26:38;4.93;;;2.77;;
10471;SDS011;5283;48.876;8.962;2023-07-31T02:29:05;6.50;;;3.10;;
10471;SDS011;5283;48.876;8.962;2023-07-31T02:31:32;4.87;;;3.10;;
10471;SDS011;5283;48.876;8.962;2023-07-31T02:33:58;5.93;;;3.20;;
10471;SDS011;5283;48.876;8.962;2023-07-31T02:36:25;4.70;;;2.87;;
10471;SDS011;5283;48.876;8.962;2023-07-31T02:38:52;6.13;;;3.07;;
10471;SDS011;5283;48.876;8.962;2023-07-31T02:41:19;5.10;;;2.90;;
10471;SDS011;5283;48.876;8.962;2023-07-31T02:43:45;7.07;;;3.00;;
10471;SDS011;5283;48.876;8.962;2023-07-31T02:46:12;4.90;;;2.80;;
10471;SDS011;5283;48.876;8.962;2023-07-31T02:48:39;4.47;;;2.50;;
10471;SDS011;5283;48.876;8.962;2023-07-31T02:51:06;4.83;;;2.43;;
10471;SDS011;5283;48.876;8.962;2023-07-31T02:53:34;6.00;;;2.70;;
10471;SDS011;5283;48.876;8.962;2023-07-31T02:56:00;4.10;;;2.57;;
10471;SDS011;5283;48.876;8.962;2023-07-31T02:58:27;5.23;;;2.57;;
10471;SDS011;5283;48.876;8.962;2023-07-31T03:00:54;4.27;;;2.37;;
10471;SDS011;5283;48.876;8.962;2023-07-31T03:03:21;5.40;;;2.70;;
10471;SDS011;5283;48.876;8.962;2023-07-31T03:05:48;3.77;;;2.27;;
10471;SDS011;5283;48.876;8.962;2023-07-31T03:08:14;4.20;;;2.50;;
10471;SDS011;5283;48.876;8.962;2023-07-31T03:10:41;6.33;;;2.60;;
10471;SDS011;5283;48.876;8.962;2023-07-31T03:13:08;6.47;;;2.60;;
10471;SDS011;5283;48.876;8.962;2023-07-31T03:15:35;4.30;;;2.60;;
10471;SDS011;5283;48.876;8.962;2023-07-31T03:18:01;4.47;;;2.00;;
10471;SDS011;5283;48.876;8.962;2023-07-31T03:20:28;3.60;;;2.37;;
10471;SDS011;5283;48.876;8.962;2023-07-31T03:22:55;3.43;;;2.27;;
10471;SDS011;5283;48.876;8.962;2023-07-31T03:25:22;4.97;;;2.50;;
10471;SDS011;5283;48.876;8.962;2023-07-31T03:27:49;3.93;;;2.57;;
10471;SDS011;5283;48.876;8.962;2023-07-31T03:30:17;3.57;;;2.00;;
10471;SDS011;5283;48.876;8.962;2023-07-31T03:32:43;4.07;;;2.20;;
10471;SDS011;5283;48.876;8.962;2023-07-31T03:35:10;4.57;;;2.23;;
10471;SDS011;5283;48.876;8.962;2023-07-31T03:37:37;2.70;;;2.03;;
10471;SDS011;5283;48.876;8.962;2023-07-31T03:40:04;3.83;;;2.33;;
10471;SDS011;5283;48.876;8.962;2023-07-31T03:42:31;3.93;;;2.27;;
10471;SDS011;5283;48.876;8.962;2023-07-31T03:44:58;2.53;;;2.17;;
10471;SDS011;5283;48.876;8.962;2023-07-31T03:47:24;3.53;;;2.20;;
10471;SDS011;5283;48.876;8.962;2023-07-31T03:49:52;3.33;;;2.37;;
10471;SDS011;5283;48.876;8.962;2023-07-31T03:52:19;4.17;;;2.43;;
10471;SDS011;5283;48.876;8.962;2023-07-31T03:54:46;4.97;;;2.57;;
10471;SDS011;5283;48.876;8.962;2023-07-31T03:57:13;4.83;;;2.23;;
10471;SDS011;5283;48.876;8.962;2023-07-31T03:59:40;4.33;;;2.30;;
10471;SDS011;5283;48.876;8.962;2023-07-31T04:02:06;4.93;;;2.30;;
10471;SDS011;5283;48.876;8.962;2023-07-31T04:04:33;2.37;;;2.03;;
10471;SDS011;5283;48.876;8.962;2023-07-31T04:07:01;4.27;;;2.20;;
10471;SDS011;5283;48.876;8.962;2023-07-31T04:09:27;6.43;;;2.37;;
10471;SDS011;5283;48.876;8.962;2023-07-31T04:11:54;3.17;;;2.00;;
10471;SDS011;5283;48.876;8.962;2023-07-31T04:14:22;4.27;;;2.03;;
10471;SDS011;5283;48.876;8.962;2023-07-31T04:16:50;4.27;;;2.00;;
10471;SDS011;5283;48.876;8.962;2023-07-31T04:19:17;5.20;;;2.40;;
10471;SDS011;5283;48.876;8.962;2023-07-31T04:21:43;5.60;;;2.20;;
10471;SDS011;5283;48.876;8.962;2023-07-31T04:24:10;5.23;;;2.30;;
10471;SDS011;5283;48.876;8.962;2023-07-31T04:26:39;3.20;;;2.10;;
10471;SDS011;5283;48.876;8.962;2023-07-31T04:29:06;5.13;;;2.20;;
10471;SDS011;5283;48.876;8.962;2023-07-31T04:31:33;5.10;;;2.17;;
10471;SDS011;5283;48.876;8.962;2023-07-31T04:34:01;7.73;;;2.57;;
10471;SDS011;5283;48.876;8.962;2023-07-31T04:36:30;3.70;;;1.83;;
10471;SDS011;5283;48.876;8.962;2023-07-31T04:38:57;2.63;;;1.80;;
10471;SDS011;5283;48.876;8.962;2023-07-31T04:41:24;2.43;;;1.57;;
10471;SDS011;5283;48.876;8.962;2023-07-31T04:43:50;4.87;;;2.13;;
10471;SDS011;5283;48.876;8.962;2023-07-31T04:46:17;3.80;;;2.10;;
10471;SDS011;5283;48.876;8.962;2023-07-31T04:48:44;3.53;;;1.83;;
10471;SDS011;5283;48.876;8.962;2023-07-31T04:51:11;3.43;;;2.07;;
10471;SDS011;5283;48.876;8.962;2023-07-31T04:53:38;1.90;;;1.73;;
10471;SDS011;5283;48.876;8.962;2023-07-31T04:56:04;4.23;;;2.23;;
10471;SDS011;5283;48.876;8.962;2023-07-31T04:58:31;5.70;;;2.40;;
10471;SDS011;5283;48.876;8.962;2023-07-31T05:00:58;3.23;;;1.70;;
10471;SDS011;5283;48.876;8.962;2023-07-31T05:03:25;2.90;;;1.80;;
10471;SDS011;5283;48.876;8.962;2023-07-31T05:05:52;4.60;;;2.00;;
10471;SDS011;5283;48.876;8.962;2023-07-31T05:08:18;5.80;;;2.27;;
10471;SDS011;5283;48.876;8.962;2023-07-31T05:10:45;2.87;;;2.23;;
10471;SDS011;5283;48.876;8.962;2023-07-31T05:13:12;4.53;;;2.20;;
10471;SDS011;5283;48.876;8.962;2023-07-31T05:15:40;4.33;;;2.00;;
10471;SDS011;5283;48.876;8.962;2023-07-31T05:18:07;2.47;;;1.77;;
10471;SDS011;5283;48.876;8.962;2023-07-31T05:20:34;6.83;;;2.00;;
10471;SDS011;5283;48.876;8.962;2023-07-31T05:23:01;4.80;;;1.80;;
10471;SDS011;5283;48.876;8.962;2023-07-31T05:25:28;3.40;;;1.83;;
10471;SDS011;5283;48.876;8.962;2023-07-31T05:27:54;3.17;;;2.10;;
10471;SDS011;5283;48.876;8.962;2023-07-31T05:30:21;2.70;;;2.00;;
10471;SDS011;5283;48.876;8.962;2023-07-31T05:32:48;2.83;;;1.73;;
10471;SDS011;5283;48.876;8.962;2023-07-31T05:35:15;4.03;;;1.80;;
10471;SDS011;5283;48.876;8.962;2023-07-31T05:37:42;4.17;;;2.00;;
10471;SDS011;5283;48.876;8.962;2023-07-31T05:40:08;3.10;;;1.73;;
10471;SDS011;5283;48.876;8.962;2023-07-31T05:42:35;6.33;;;2.30;;
10471;SDS011;5283;48.876;8.962;2023-07-31T05:45:05;2.73;;;1.90;;
10471;SDS011;5283;48.876;8.962;2023-07-31T05:47:33;2.67;;;1.90;;
10471;SDS011;5283;48.876;8.962;2023-07-31T05:49:59;3.10;;;2.00;;
10471;SDS011;5283;48.876;8.962;2023-07-31T05:52:26;4.10;;;2.10;;
10471;SDS011;5283;48.876;8.962;2023-07-31T05:54:55;4.17;;;2.50;;
10471;SDS011;5283;48.876;8.962;2023-07-31T05:57:21;4.90;;;2.47;;
10471;SDS011;5283;48.876;8.962;2023-07-31T05:59:48;2.30;;;1.70;;
10471;SDS011;5283;48.876;8.962;2023-07-31T06:02:15;5.00;;;2.20;;
10471;SDS011;5283;48.876;8.962;2023-07-31T06:04:42;4.50;;;2.40;;
10471;SDS011;5283;48.876;8.962;2023-07-31T06:07:09;3.57;;;1.83;;
10471;SDS011;5283;48.876;8.962;2023-07-31T06:09:36;4.00;;;2.17;;
10471;SDS011;5283;48.876;8.962;2023-07-31T06:12:03;6.67;;;2.10;;
10471;SDS011;5283;48.876;8.962;2023-07-31T06:14:30;3.50;;;2.00;;
10471;SDS011;5283;48.876;8.962;2023-07-31T06:16:57;3.63;;;2.00;;
10471;SDS011;5283;48.876;8.962;2023-07-31T06:19:24;3.87;;;2.00;;
10471;SDS011;5283;48.876;8.962;2023-07-31T06:21:51;4.77;;;1.93;;
10471;SDS011;5283;48.876;8.962;2023-07-31T06:24:17;2.37;;;1.73;;
10471;SDS011;5283;48.876;8.962;2023-07-31T06:26:46;2.73;;;1.70;;
10471;SDS011;5283;48.876;8.962;2023-07-31T06:29:13;3.30;;;2.07;;
10471;SDS011;5283;48.876;8.962;2023-07-31T06:31:40;4.63;;;2.07;;
10471;SDS011;5283;48.876;8.962;2023-07-31T06:34:07;3.43;;;2.10;;
10471;SDS011;5283;48.876;8.962;2023-07-31T06:36:34;4.30;;;1.83;;
10471;SDS011;5283;48.876;8.962;2023-07-31T06:39:00;3.63;;;2.00;;
10471;SDS011;5283;48.876;8.962;2023-07-31T06:41:27;6.83;;;2.33;;
10471;SDS011;5283;48.876;8.962;2023-07-31T06:43:54;2.80;;;1.90;;
10471;SDS011;5283;48.876;8.962;2023-07-31T06:46:21;3.30;;;2.10;;
10471;SDS011;5283;48.876;8.962;2023-07-31T06:48:47;2.67;;;2.00;;
10471;SDS011;5283;48.876;8.962;2023-07-31T06:51:14;5.57;;;2.50;;
10471;SDS011;5283;48.876;8.962;2023-07-31T06:53:41;3.23;;;2.13;;
10471;SDS011;5283;48.876;8.962;2023-07-31T06:56:09;3.13;;;2.03;;
10471;SDS011;5283;48.876;8.962;2023-07-31T06:58:35;3.27;;;2.40;;
10471;SDS011;5283;48.876;8.962;2023-07-31T07:01:02;5.97;;;2.17;;
10471;SDS011;5283;48.876;8.962;2023-07-31T07:03:29;2.77;;;1.70;;
10471;SDS011;5283;48.876;8.962;2023-07-31T07:05:56;4.57;;;2.20;;
10471;SDS011;5283;48.876;8.962;2023-07-31T07:08:23;3.53;;;1.83;;
10471;SDS011;5283;48.876;8.962;2023-07-31T07:10:52;4.23;;;2.13;;
10471;SDS011;5283;48.876;8.962;2023-07-31T07:13:19;2.23;;;2.00;;
10471;SDS011;5283;48.876;8.962;2023-07-31T07:15:49;3.07;;;2.13;;
10471;SDS011;5283;48.876;8.962;2023-07-31T07:18:16;3.77;;;2.07;;
10471;SDS011;5283;48.876;8.962;2023-07-31T07:20:50;2.93;;;1.77;;
10471;SDS011;5283;48.876;8.962;2023-07-31T07:23:18;4.53;;;2.53;;
10471;SDS011;5283;48.876;8.962;2023-07-31T07:25:46;5.80;;;2.30;;
10471;SDS011;5283;48.876;8.962;2023-07-31T07:28:13;4.30;;;2.20;;
10471;SDS011;5283;48.876;8.962;2023-07-31T07:30:40;5.10;;;2.20;;
10471;SDS011;5283;48.876;8.962;2023-07-31T07:33:07;3.67;;;2.07;;
10471;SDS011;5283;48.876;8.962;2023-07-31T07:35:34;4.57;;;2.30;;
10471;SDS011;5283;48.876;8.962;2023-07-31T07:38:02;3.10;;;1.90;;
10471;SDS011;5283;48.876;8.962;2023-07-31T07:40:29;3.17;;;2.20;;
10471;SDS011;5283;48.876;8.962;2023-07-31T07:42:56;3.50;;;2.00;;
10471;SDS011;5283;48.876;8.962;2023-07-31T07:45:22;4.67;;;2.20;;
10471;SDS011;5283;48.876;8.962;2023-07-31T07:47:49;3.90;;;2.17;;
10471;SDS011;5283;48.876;8.962;2023-07-31T07:50:16;3.83;;;2.10;;
10471;SDS011;5283;48.876;8.962;2023-07-31T07:52:43;5.80;;;2.37;;
10471;SDS011;5283;48.876;8.962;2023-07-31T07:55:09;4.43;;;2.47;;
10471;SDS011;5283;48.876;8.962;2023-07-31T07:57:36;4.13;;;2.47;;
10471;SDS011;5283;48.876;8.962;2023-07-31T08:00:03;5.67;;;2.43;;
10471;SDS011;5283;48.876;8.962;2023-07-31T08:02:30;4.43;;;2.43;;
10471;SDS011;5283;48.876;8.962;2023-07-31T08:04:57;3.50;;;1.90;;
10471;SDS011;5283;48.876;8.962;2023-07-31T08:07:24;3.83;;;2.30;;
10471;SDS011;5283;48.876;8.962;2023-07-31T08:09:50;3.77;;;1.97;;
10471;SDS011;5283;48.876;8.962;2023-07-31T08:12:18;5.50;;;2.10;;
10471;SDS011;5283;48.876;8.962;2023-07-31T08:14:45;4.27;;;2.20;;
10471;SDS011;5283;48.876;8.962;2023-07-31T08:17:11;2.90;;;2.00;;
10471;SDS011;5283;48.876;8.962;2023-07-31T08:19:38;4.93;;;2.50;;
10471;SDS011;5283;48.876;8.962;2023-07-31T08:22:05;3.93;;;2.20;;
10471;SDS011;5283;48.876;8.962;2023-07-31T08:24:32;4.47;;;2.70;;
10471;SDS011;5283;48.876;8.962;2023-07-31T08:26:58;5.67;;;2.60;;
10471;SDS011;5283;48.876;8.962;2023-07-31T08:29:25;3.43;;;2.20;;
10471;SDS011;5283;48.876;8.962;2023-07-31T08:31:52;4.50;;;2.57;;
10471;SDS011;5283;48.876;8.962;2023-07-31T08:34:19;3.53;;;2.60;;
10471;SDS011;5283;48.876;8.962;2023-07-31T08:36:45;4.40;;;2.50;;
10471;SDS011;5283;48.876;8.962;2023-07-31T08:39:12;4.63;;;2.40;;
10471;SDS011;5283;48.876;8.962;2023-07-31T08:41:39;3.53;;;2.33;;
10471;SDS011;5283;48.876;8.962;2023-07-31T08:44:07;6.80;;;2.37;;
10471;SDS011;5283;48.876;8.962;2023-07-31T08:46:34;5.93;;;2.80;;
10471;SDS011;5283;48.876;8.962;2023-07-31T08:49:02;5.23;;;2.20;;
10471;SDS011;5283;48.876;8.962;2023-07-31T08:51:33;3.80;;;2.30;;
10471;SDS011;5283;48.876;8.962;2023-07-31T08:54:01;5.63;;;2.53;;
10471;SDS011;5283;48.876;8.962;2023-07-31T08:56:31;5.70;;;2.30;;
10471;SDS011;5283;48.876;8.962;2023-07-31T08:58:59;3.27;;;2.27;;
10471;SDS011;5283;48.876;8.962;2023-07-31T09:01:28;4.20;;;2.50;;
10471;SDS011;5283;48.876;8.962;2023-07-31T09:03:58;3.60;;;2.23;;
10471;SDS011;5283;48.876;8.962;2023-07-31T09:06:28;4.43;;;2.20;;
10471;SDS011;5283;48.876;8.962;2023-07-31T09:08:56;5.23;;;2.73;;
10471;SDS011;5283;48.876;8.962;2023-07-31T09:11:23;3.90;;;2.70;;
10471;SDS011;5283;48.876;8.962;2023-07-31T09:13:51;4.50;;;2.40;;
10471;SDS011;5283;48.876;8.962;2023-07-31T09:16:18;4.23;;;2.47;;
10471;SDS011;5283;48.876;8.962;2023-07-31T09:18:54;3.63;;;2.50;;
10471;SDS011;5283;48.876;8.962;2023-07-31T09:21:23;3.83;;;2.60;;
10471;SDS011;5283;48.876;8.962;2023-07-31T09:23:50;3.93;;;2.50;;
10471;SDS011;5283;48.876;8.962;2023-07-31T09:26:33;3.83;;;2.60;;
10471;SDS011;5283;48.876;8.962;2023-07-31T09:29:04;5.27;;;2.70;;
10471;SDS011;5283;48.876;8.962;2023-07-31T09:34:04;4.73;;;2.67;;
10471;SDS011;5283;48.876;8.962;2023-07-31T09:36:31;4.70;;;2.53;;
10471;SDS011;5283;48.876;8.962;2023-07-31T09:39:04;5.70;;;2.47;;
10471;SDS011;5283;48.876;8.962;2023-07-31T09:41:31;4.70;;;2.63;;
10471;SDS011;5283;48.876;8.962;2023-07-31T09:44:04;5.93;;;2.77;;
10471;SDS011;5283;48.876;8.962;2023-07-31T09:46:31;4.60;;;2.70;;
10471;SDS011;5283;48.876;8.962;2023-07-31T09:49:07;4.47;;;2.90;;
10471;SDS011;5283;48.876;8.962;2023-07-31T09:51:36;5.10;;;3.00;;
10471;SDS011;5283;48.876;8.962;2023-07-31T09:54:11;3.63;;;2.50;;
10471;SDS011;5283;48.876;8.962;2023-07-31T09:56:41;4.40;;;2.60;;
10471;SDS011;5283;48.876;8.962;2023-07-31T09:59:16;4.17;;;2.50;;
10471;SDS011;5283;48.876;8.962;2023-07-31T10:01:45;3.97;;;2.57;;
10471;SDS011;5283;48.876;8.962;2023-07-31T10:04:13;5.63;;;2.90;;
10471;SDS011;5283;48.876;8.962;2023-07-31T10:06:42;5.63;;;3.00;;
10471;SDS011;5283;48.876;8.962;2023-07-31T10:09:11;4.77;;;2.93;;
10471;SDS011;5283;48.876;8.962;2023-07-31T10:11:42;3.60;;;2.77;;
10471;SDS011;5283;48.876;8.962;2023-07-31T10:14:20;5.70;;;2.83;;
10471;SDS011;5283;48.876;8.962;2023-07-31T10:16:47;5.27;;;2.73;;
10471;SDS011;5283;48.876;8.962;2023-07-31T10:19:15;3.83;;;2.73;;
10471;SDS011;5283;48.876;8.962;2023-07-31T10:21:44;4.20;;;2.90;;
10471;SDS011;5283;48.876;8.962;2023-07-31T10:24:12;5.70;;;2.97;;
10471;SDS011;5283;48.876;8.962;2023-07-31T10:26:40;5.93;;;2.97;;
10471;SDS011;5283;48.876;8.962;2023-07-31T10:29:10;4.17;;;2.60;;
10471;SDS011;5283;48.876;8.962;2023-07-31T10:31:37;3.93;;;2.93;;
10471;SDS011;5283;48.876;8.962;2023-07-31T10:34:05;5.70;;;3.17;;
10471;SDS011;5283;48.876;8.962;2023-07-31T10:36:31;5.57;;;2.90;;
10471;SDS011;5283;48.876;8.962;2023-07-31T10:38:59;4.07;;;2.90;;
10471;SDS011;5283;48.876;8.962;2023-07-31T10:41:29;5.10;;;2.87;;
10471;SDS011;5283;48.876;8.962;2023-07-31T10:44:00;5.53;;;2.87;;
10471;SDS011;5283;48.876;8.962;2023-07-31T10:46:27;7.03;;;3.03;;
10471;SDS011;5283;48.876;8.962;2023-07-31T10:48:59;5.73;;;3.13;;
10471;SDS011;5283;48.876;8.962;2023-07-31T10:51:34;5.10;;;2.90;;
10471;SDS011;5283;48.876;8.962;2023-07-31T10:54:15;4.03;;;2.83;;
10471;SDS011;5283;48.876;8.962;2023-07-31T10:56:44;4.60;;;3.07;;
10471;SDS011;5283;48.876;8.962;2023-07-31T10:59:13;4.93;;;2.90;;
10471;SDS011;5283;48.876;8.962;2023-07-31T11:01:49;4.40;;;2.93;;
10471;SDS011;5283;48.876;8.962;2023-07-31T11:04:24;6.23;;;3.10;;
10471;SDS011;5283;48.876;8.962;2023-07-31T11:06:58;5.03;;;2.80;;
10471;SDS011;5283;48.876;8.962;2023-07-31T11:09:30;6.10;;;3.43;;
10471;SDS011;5283;48.876;8.962;2023-07-31T11:11:59;5.37;;;3.37;;
10471;SDS011;5283;48.876;8.962;2023-07-31T11:14:26;5.67;;;3.10;;
10471;SDS011;5283;48.876;8.962;2023-07-31T11:16:52;5.63;;;3.20;;
10471;SDS011;5283;48.876;8.962;2023-07-31T11:19:22;3.73;;;2.83;;
10471;SDS011;5283;48.876;8.962;2023-07-31T11:21:54;5.77;;;3.13;;
10471;SDS011;5283;48.876;8.962;2023-07-31T11:24:22;5.03;;;2.90;;
10471;SDS011;5283;48.876;8.962;2023-07-31T11:26:52;4.37;;;2.87;;
10471;SDS011;5283;48.876;8.962;2023-07-31T11:29:20;3.40;;;2.80;;
10471;SDS011;5283;48.876;8.962;2023-07-31T11:31:47;6.40;;;3.13;;
10471;SDS011;5283;48.876;8.962;2023-07-31T11:34:15;6.57;;;3.10;;
10471;SDS011;5283;48.876;8.962;2023-07-31T11:36:52;7.17;;;3.20;;
10471;SDS011;5283;48.876;8.962;2023-07-31T11:39:21;4.57;;;3.10;;
10471;SDS011;5283;48.876;8.962;2023-07-31T11:41:48;5.00;;;3.00;;
10471;SDS011;5283;48.876;8.962;2023-07-31T11:44:15;6.23;;;3.23;;
10471;SDS011;5283;48.876;8.962;2023-07-31T11:46:52;5.10;;;3.00;;
10471;SDS011;5283;48.876;8.962;2023-07-31T11:49:22;4.53;;;3.10;;
10471;SDS011;5283;48.876;8.962;2023-07-31T11:51:49;6.30;;;3.00;;
10471;SDS011;5283;48.876;8.962;2023-07-31T11:54:16;4.73;;;3.13;;
10471;SDS011;5283;48.876;8.962;2023-07-31T11:56:43;4.53;;;2.97;;
10471;SDS011;5283;48.876;8.962;2023-07-31T11:59:10;4.37;;;2.70;;
10471;SDS011;5283;48.876;8.962;2023-07-31T12:01:40;5.03;;;2.80;;
10471;SDS011;5283;48.876;8.962;2023-07-31T12:04:07;5.67;;;2.80;;
10471;SDS011;5283;48.876;8.962;2023-07-31T12:06:34;5.50;;;2.90;;
10471;SDS011;5283;48.876;8.962;2023-07-31T12:09:05;4.87;;;3.10;;
10471;SDS011;5283;48.876;8.962;2023-07-31T12:11:43;3.57;;;2.90;;
10471;SDS011;5283;48.876;8.962;2023-07-31T12:14:20;3.87;;;2.70;;
10471;SDS011;5283;48.876;8.962;2023-07-31T12:16:52;4.33;;;3.00;;
10471;SDS011;5283;48.876;8.962;2023-07-31T12:19:23;4.03;;;2.83;;
10471;SDS011;5283;48.876;8.962;2023-07-31T12:21:54;7.63;;;3.33;;
10471;SDS011;5283;48.876;8.962;2023-07-31T12:24:22;6.00;;;3.17;;
10471;SDS011;5283;48.876;8.962;2023-07-31T12:26:48;4.67;;;2.90;;
10471;SDS011;5283;48.876;8.962;2023-07-31T12:29:15;5.03;;;2.87;;
10471;SDS011;5283;48.876;8.962;2023-07-31T12:31:42;6.20;;;2.50;;
10471;SDS011;5283;48.876;8.962;2023-07-31T12:34:20;4.43;;;2.90;;
10471;SDS011;5283;48.876;8.962;2023-07-31T12:36:50;3.30;;;2.57;;
10471;SDS011;5283;48.876;8.962;2023-07-31T12:39:19;3.23;;;2.87;;
10471;SDS011;5283;48.876;8.962;2023-07-31T12:41:46;4.40;;;2.67;;
10471;SDS011;5283;48.876;8.962;2023-07-31T12:44:13;3.47;;;2.70;;
10471;SDS011;5283;48.876;8.962;2023-07-31T12:46:40;3.73;;;2.30;;
10471;SDS011;5283;48.876;8.962;2023-07-31T12:49:07;4.73;;;3.00;;
10471;SDS011;5283;48.876;8.962;2023-07-31T12:51:35;3.70;;;2.60;;
10471;SDS011;5283;48.876;8.962;2023-07-31T12:54:02;7.07;;;3.00;;
10471;SDS011;5283;48.876;8.962;2023-07-31T12:56:29;4.00;;;3.03;;
10471;SDS011;5283;48.876;8.962;2023-07-31T12:58:56;4.90;;;2.90;;
10471;SDS011;5283;48.876;8.962;2023-07-31T13:01:23;6.33;;;3.13;;
10471;SDS011;5283;48.876;8.962;2023-07-31T13:03:50;5.33;;;3.00;;
10471;SDS011;5283;48.876;8.962;2023-07-31T13:06:16;4.37;;;2.70;;
10471;SDS011;5283;48.876;8.962;2023-07-31T13:08:43;5.87;;;2.83;;
10471;SDS011;5283;48.876;8.962;2023-07-31T13:11:10;4.43;;;2.83;;
10471;SDS011;5283;48.876;8.962;2023-07-31T13:13:37;6.07;;;3.00;;
10471;SDS011;5283;48.876;8.962;2023-07-31T13:16:04;5.93;;;3.30;;
10471;SDS011;5283;48.876;8.962;2023-07-31T13:18:31;2.57;;;2.37;;
10471;SDS011;5283;48.876;8.962;2023-07-31T13:20:59;5.53;;;2.80;;
10471;SDS011;5283;48.876;8.962;2023-07-31T13:23:26;4.20;;;2.50;;
10471;SDS011;5283;48.876;8.962;2023-07-31T13:25:53;2.60;;;2.40;;
10471;SDS011;5283;48.876;8.962;2023-07-31T13:28:20;3.70;;;2.90;;
10471;SDS011;5283;48.876;8.962;2023-07-31T13:30:47;5.23;;;2.80;;
10471;SDS011;5283;48.876;8.962;2023-07-31T13:33:13;3.87;;;3.00;;
10471;SDS011;5283;48.876;8.962;2023-07-31T13:35:56;4.60;;;2.90;;
10471;SDS011;5283;48.876;8.962;2023-07-31T13:38:23;5.33;;;2.83;;
10471;SDS011;5283;48.876;8.962;2023-07-31T13:40:50;6.57;;;3.20;;
10471;SDS011;5283;48.876;8.962;2023-07-31T13:43:17;3.43;;;2.57;;
10471;SDS011;5283;48.876;8.962;2023-07-31T13:45:43;4.43;;;2.70;;
10471;SDS011;5283;48.876;8.962;2023-07-31T13:48:10;4.43;;;3.00;;
10471;SDS011;5283;48.876;8.962;2023-07-31T13:50:37;3.83;;;2.83;;
10471;SDS011;5283;48.876;8.962;2023-07-31T13:53:04;2.93;;;2.60;;
10471;SDS011;5283;48.876;8.962;2023-07-31T13:55:30;5.30;;;2.67;;
10471;SDS011;5283;48.876;8.962;2023-07-31T13:57:57;5.00;;;2.60;;
10471;SDS011;5283;48.876;8.962;2023-07-31T14:00:24;4.83;;;2.60;;
10471;SDS011;5283;48.876;8.962;2023-07-31T14:02:50;4.83;;;2.77;;
10471;SDS011;5283;48.876;8.962;2023-07-31T14:05:17;3.20;;;2.60;;
10471;SDS011;5283;48.876;8.962;2023-07-31T14:07:44;4.37;;;2.80;;
10471;SDS011;5283;48.876;8.962;2023-07-31T14:10:11;5.20;;;2.50;;
10471;SDS011;5283;48.876;8.962;2023-07-31T14:12:37;6.33;;;2.80;;
10471;SDS011;5283;48.876;8.962;2023-07-31T14:15:07;4.40;;;2.67;;
10471;SDS011;5283;48.876;8.962;2023-07-31T14:17:34;8.43;;;2.93;;
10471;SDS011;5283;48.876;8.962;2023-07-31T14:20:01;3.60;;;2.57;;
10471;SDS011;5283;48.876;8.962;2023-07-31T14:22:30;4.17;;;2.70;;
10471;SDS011;5283;48.876;8.962;2023-07-31T14:24:57;4.67;;;2.60;;
10471;SDS011;5283;48.876;8.962;2023-07-31T14:27:23;6.80;;;2.60;;
10471;SDS011;5283;48.876;8.962;2023-07-31T14:29:50;4.20;;;2.67;;
10471;SDS011;5283;48.876;8.962;2023-07-31T14:32:17;5.03;;;2.50;;
10471;SDS011;5283;48.876;8.962;2023-07-31T14:34:44;4.67;;;2.80;;
10471;SDS011;5283;48.876;8.962;2023-07-31T14:37:11;3.40;;;2.40;;
10471;SDS011;5283;48.876;8.962;2023-07-31T14:39:37;3.53;;;2.60;;
10471;SDS011;5283;48.876;8.962;2023-07-31T14:42:06;3.20;;;2.43;;
10471;SDS011;5283;48.876;8.962;2023-07-31T14:44:33;4.60;;;2.87;;
10471;SDS011;5283;48.876;8.962;2023-07-31T14:46:59;4.97;;;2.60;;
10471;SDS011;5283;48.876;8.962;2023-07-31T14:49:26;4.03;;;2.70;;
10471;SDS011;5283;48.876;8.962;2023-07-31T14:51:54;3.87;;;2.47;;
10471;SDS011;5283;48.876;8.962;2023-07-31T14:54:21;3.60;;;2.83;;
10471;SDS011;5283;48.876;8.962;2023-07-31T14:56:48;4.37;;;2.80;;
10471;SDS011;5283;48.876;8.962;2023-07-31T14:59:15;6.77;;;2.93;;
10471;SDS011;5283;48.876;8.962;2023-07-31T15:01:41;2.90;;;2.70;;
10471;SDS011;5283;48.876;8.962;2023-07-31T15:04:08;2.80;;;2.47;;
10471;SDS011;5283;48.876;8.962;2023-07-31T15:06:35;3.33;;;2.50;;
10471;SDS011;5283;48.876;8.962;2023-07-31T15:09:02;4.33;;;2.70;;
10471;SDS011;5283;48.876;8.962;2023-07-31T15:11:29;5.67;;;2.77;;
10471;SDS011;5283;48.876;8.962;2023-07-31T15:13:55;3.60;;;2.77;;
10471;SDS011;5283;48.876;8.962;2023-07-31T15:16:22;3.87;;;2.40;;
10471;SDS011;5283;48.876;8.962;2023-07-31T15:18:49;3.40;;;2.40;;
10471;SDS011;5283;48.876;8.962;2023-07-31T15:21:16;3.40;;;2.77;;